createdAt,value
2022-12-04T00:00:16.149Z,86.06
2022-12-04T00:03:18.557Z,86.91
2022-12-04T00:06:22.052Z,87.06
2022-12-04T00:09:24.364Z,87.62
2022-12-04T00:12:26.611Z,87.35
2022-12-04T00:15:28.892Z,87.22
2022-12-04T00:18:31.154Z,87.16
2022-12-04T00:21:33.592Z,87.24
2022-12-04T00:24:35.854Z,86.73
2022-12-04T00:27:38.235Z,86.50
2022-12-04T00:30:42.109Z,86.71
2022-12-04T00:33:44.823Z,86.97
2022-12-04T00:36:47.088Z,86.89
2022-12-04T00:39:49.308Z,86.85
2022-12-04T00:42:51.629Z,86.94
2022-12-04T00:45:54.099Z,87.19
2022-12-04T00:48:56.542Z,86.43
2022-12-04T00:51:58.785Z,86.85
2022-12-04T00:55:01.153Z,87.01
2022-12-04T00:58:03.481Z,86.89
2022-12-04T01:01:09.501Z,86.69
2022-12-04T01:04:11.906Z,86.67
2022-12-04T01:07:14.273Z,86.94
2022-12-04T01:10:16.762Z,86.79
2022-12-04T01:13:19.305Z,86.58
2022-12-04T01:16:27.575Z,87.17
2022-12-04T01:19:29.912Z,87.21
2022-12-04T01:22:32.814Z,87.14
2022-12-04T01:25:35.055Z,86.74
2022-12-04T01:28:37.583Z,86.84
2022-12-04T01:31:39.938Z,87.05
2022-12-04T01:34:42.339Z,85.93
2022-12-04T01:37:44.647Z,84.19
2022-12-04T01:40:46.978Z,82.71
2022-12-04T01:44:21.297Z,82.12
2022-12-04T01:47:23.611Z,81.81
2022-12-04T01:50:25.881Z,81.90
2022-12-04T01:53:30.481Z,81.40
2022-12-04T01:56:54.702Z,81.67
2022-12-04T02:00:05.617Z,81.52
2022-12-04T02:03:07.972Z,81.08
2022-12-04T02:06:10.287Z,80.86
2022-12-04T02:09:12.601Z,80.97
2022-12-04T02:12:41.089Z,81.15
2022-12-04T02:16:06.398Z,82.17
2022-12-04T02:19:42.071Z,82.51
2022-12-04T02:23:02.410Z,82.79
2022-12-04T02:26:30.309Z,83.52
2022-12-04T02:29:57.148Z,83.74
2022-12-04T02:33:26.473Z,83.36
2022-12-04T02:36:34.522Z,83.98
2022-12-04T02:39:48.776Z,84.52
2022-12-04T02:42:59.889Z,84.70
2022-12-04T02:46:14.592Z,84.37
2022-12-04T02:49:23.765Z,84.83
2022-12-04T02:52:34.869Z,85.06
2022-12-04T02:55:48.377Z,86.39
2022-12-04T02:58:56.125Z,86.14
2022-12-04T03:02:07.474Z,85.96
2022-12-04T03:05:15.755Z,86.28
2022-12-04T03:08:24.219Z,86.19
2022-12-04T03:11:31.923Z,86.28
2022-12-04T03:14:44.094Z,86.13
2022-12-04T03:17:53.414Z,86.88
2022-12-04T03:21:04.192Z,87.09
2022-12-04T03:24:17.174Z,87.60
2022-12-04T03:27:54.289Z,87.48
2022-12-04T03:31:03.633Z,88.63
2022-12-04T03:34:08.543Z,89.56
2022-12-04T03:37:17.450Z,88.97
2022-12-04T03:40:22.900Z,89.20
2022-12-04T03:43:29.817Z,89.24
2022-12-04T03:46:58.237Z,89.35
2022-12-04T03:50:08.776Z,89.62
2022-12-04T03:53:20.729Z,88.54
2022-12-04T03:56:29.347Z,88.74
2022-12-04T03:59:43.313Z,88.08
2022-12-04T04:02:54.827Z,87.70
2022-12-04T04:06:06.561Z,86.57
2022-12-04T04:09:18.919Z,86.21
2022-12-04T04:12:25.279Z,86.60
2022-12-04T04:15:46.245Z,86.01
2022-12-04T04:19:08.887Z,86.65
2022-12-04T04:22:29.933Z,87.05
2022-12-04T04:25:36.403Z,86.28
2022-12-04T04:28:41.515Z,86.82
2022-12-04T04:31:48.690Z,87.14
2022-12-04T04:34:56.314Z,87.05
2022-12-04T04:38:20.201Z,87.30
2022-12-04T04:41:51.039Z,87.50
2022-12-04T04:45:05.867Z,87.58
2022-12-04T04:48:22.226Z,87.72
2022-12-04T04:51:26.190Z,87.56
2022-12-04T04:54:31.482Z,87.62
2022-12-04T04:57:36.206Z,87.42
2022-12-04T05:00:39.775Z,87.27
2022-12-04T05:03:42.242Z,86.98
2022-12-04T05:06:45.043Z,87.07
2022-12-04T05:09:47.418Z,87.09
2022-12-04T05:12:49.723Z,87.29
2022-12-04T05:16:00.188Z,86.59
2022-12-04T05:19:21.361Z,86.46
2022-12-04T05:22:34.954Z,86.16
2022-12-04T05:25:37.244Z,86.16
2022-12-04T05:28:42.222Z,86.50
2022-12-04T05:31:44.623Z,86.29
2022-12-04T05:34:54.401Z,86.23
2022-12-04T05:37:56.693Z,86.38
2022-12-04T05:41:00.448Z,86.73
2022-12-04T05:44:02.890Z,86.55
2022-12-04T05:47:05.881Z,86.71
2022-12-04T05:50:10.181Z,87.07
2022-12-04T05:53:12.771Z,87.43
2022-12-04T05:56:15.099Z,87.69
2022-12-04T05:59:18.136Z,88.06
2022-12-04T06:02:20.587Z,88.27
2022-12-04T06:05:23.025Z,88.49
2022-12-04T06:08:25.287Z,88.82
2022-12-04T06:11:30.798Z,89.17
2022-12-04T06:14:39.069Z,88.60
2022-12-04T06:17:41.634Z,88.32
2022-12-04T06:20:43.966Z,87.11
2022-12-04T06:23:46.299Z,87.49
2022-12-04T06:27:18.789Z,87.90
2022-12-04T06:30:11.891Z,88.26
2022-12-04T06:33:14.113Z,88.09
2022-12-04T06:36:19.491Z,87.42
2022-12-04T06:39:21.765Z,87.83
2022-12-04T06:42:24.203Z,87.34
2022-12-04T06:45:26.502Z,88.06
2022-12-04T06:48:29.504Z,88.04
2022-12-04T06:51:36.762Z,87.32
2022-12-04T06:54:39.099Z,86.87
2022-12-04T06:57:41.372Z,86.88
2022-12-04T07:00:43.635Z,86.93
2022-12-04T07:03:51.356Z,86.27
2022-12-04T07:06:54.726Z,85.78
2022-12-04T07:09:57.143Z,85.58
2022-12-04T07:12:59.581Z,85.27
2022-12-04T07:16:04.104Z,84.85
2022-12-04T07:19:06.562Z,83.52
2022-12-04T07:22:09.017Z,82.48
2022-12-04T07:25:11.471Z,82.03
2022-12-04T07:28:13.698Z,81.10
2022-12-04T07:31:20.317Z,80.52
2022-12-04T07:34:22.620Z,79.00
2022-12-04T07:37:25.187Z,77.43
2022-12-04T07:40:27.609Z,76.33
2022-12-04T07:43:30.977Z,74.01
2022-12-04T07:46:33.344Z,72.65
2022-12-04T07:49:36.198Z,72.37
2022-12-04T07:52:39.884Z,71.94
2022-12-04T07:55:42.534Z,70.43
2022-12-04T07:58:45.725Z,69.33
2022-12-04T08:01:48.219Z,67.72
2022-12-04T08:04:50.824Z,65.92
2022-12-04T08:07:53.181Z,65.66
2022-12-04T08:10:55.798Z,65.58
2022-12-04T08:14:03.082Z,65.12
2022-12-04T08:17:05.706Z,67.27
2022-12-04T08:20:08.377Z,68.29
2022-12-04T08:23:10.755Z,69.88
2022-12-04T08:26:13.698Z,70.26
2022-12-04T08:29:16.091Z,70.28
2022-12-04T08:32:18.336Z,70.08
2022-12-04T08:35:20.685Z,69.43
2022-12-04T08:38:22.950Z,68.38
2022-12-04T08:41:26.447Z,67.08
2022-12-04T08:44:28.762Z,66.64
2022-12-04T08:47:31.085Z,66.56
2022-12-04T08:50:33.395Z,65.59
2022-12-04T08:53:39.270Z,66.43
2022-12-04T08:56:41.859Z,66.45
2022-12-04T08:59:44.195Z,66.14
2022-12-04T09:02:49.957Z,66.80
2022-12-04T09:05:58.386Z,66.56
2022-12-04T09:09:01.555Z,67.45
2022-12-04T09:12:04.127Z,67.35
2022-12-04T09:15:07.930Z,67.08
2022-12-04T09:18:10.487Z,67.47
2022-12-04T09:21:14.916Z,66.77
2022-12-04T09:24:17.315Z,66.06
2022-12-04T09:27:19.691Z,65.41
2022-12-04T09:30:22.023Z,65.45
2022-12-04T09:33:24.379Z,65.41
2022-12-04T09:36:26.878Z,64.89
2022-12-04T09:39:29.219Z,64.73
2022-12-04T09:42:51.420Z,64.93
2022-12-04T09:45:57.368Z,64.67
2022-12-04T09:49:06.146Z,64.39
2022-12-04T09:52:39.412Z,63.42
2022-12-04T09:55:51.824Z,62.89
2022-12-04T09:59:00.517Z,62.01
2022-12-04T10:02:25.913Z,60.09
2022-12-04T10:05:44.291Z,59.38
2022-12-04T10:08:53.463Z,58.33
2022-12-04T10:12:28.387Z,57.50
2022-12-04T10:15:48.200Z,57.02
2022-12-04T10:19:09.178Z,56.20
2022-12-04T10:22:17.443Z,55.17
2022-12-04T10:25:25.477Z,54.90
2022-12-04T10:28:27.698Z,55.62
2022-12-04T10:31:33.326Z,54.99
2022-12-04T10:34:40.017Z,55.62
2022-12-04T10:37:49.457Z,54.82
2022-12-04T10:40:56.915Z,54.75
2022-12-04T10:43:59.291Z,53.97
2022-12-04T10:47:03.890Z,53.33
2022-12-04T10:50:16.293Z,53.47
2022-12-04T10:53:27.096Z,52.82
2022-12-04T10:56:29.432Z,52.44
2022-12-04T10:59:32.547Z,52.28
2022-12-04T11:02:35.809Z,52.42
2022-12-04T11:05:45.529Z,52.72
2022-12-04T11:08:51.986Z,54.08
2022-12-04T11:12:06.301Z,55.02
2022-12-04T11:15:08.621Z,55.07
2022-12-04T11:18:32.678Z,55.39
2022-12-04T11:21:35.136Z,54.84
2022-12-04T11:24:40.318Z,56.68
2022-12-04T11:27:47.198Z,56.83
2022-12-04T11:30:52.294Z,56.79
2022-12-04T11:34:03.021Z,58.04
2022-12-04T11:37:07.137Z,57.75
2022-12-04T11:40:18.038Z,57.47
2022-12-04T11:43:21.725Z,58.68
2022-12-04T11:46:26.517Z,59.31
2022-12-04T11:49:30.503Z,59.29
2022-12-04T11:52:52.907Z,59.31
2022-12-04T11:56:19.756Z,59.45
2022-12-04T11:59:40.787Z,59.07
2022-12-04T12:03:07.511Z,59.95
2022-12-04T12:06:39.279Z,59.80
2022-12-04T12:09:46.938Z,59.89
2022-12-04T12:12:59.256Z,59.93
2022-12-04T12:16:18.834Z,60.89
2022-12-04T12:19:29.926Z,60.24
2022-12-04T12:22:41.338Z,60.82
2022-12-04T12:25:55.469Z,60.43
2022-12-04T12:28:57.629Z,60.97
2022-12-04T12:32:05.833Z,60.98
2022-12-04T12:35:39.824Z,60.83
2022-12-04T12:38:55.528Z,61.22
2022-12-04T12:42:01.173Z,61.36
2022-12-04T12:45:19.813Z,61.03
2022-12-04T12:48:34.281Z,61.46
2022-12-04T12:51:47.083Z,61.51
2022-12-04T12:54:56.015Z,61.95
2022-12-04T12:58:09.996Z,61.52
2022-12-04T13:01:30.760Z,61.78
2022-12-04T13:04:41.981Z,61.85
2022-12-04T13:07:53.192Z,61.67
2022-12-04T13:11:05.823Z,61.85
2022-12-04T13:14:13.367Z,61.06
2022-12-04T13:17:24.193Z,61.08
2022-12-04T13:20:34.091Z,61.13
2022-12-04T13:24:16.327Z,61.17
2022-12-04T13:27:30.790Z,61.32
2022-12-04T13:31:20.394Z,61.79
2022-12-04T13:34:43.868Z,61.59
2022-12-04T13:38:16.773Z,61.75
2022-12-04T13:41:22.082Z,62.42
2022-12-04T13:44:26.082Z,62.46
2022-12-04T13:47:32.248Z,62.88
2022-12-04T13:50:37.228Z,63.23
2022-12-04T13:53:40.798Z,63.10
2022-12-04T13:56:50.064Z,63.46
2022-12-04T14:00:04.313Z,63.78
2022-12-04T14:03:23.723Z,63.91
2022-12-04T14:06:43.594Z,63.85
2022-12-04T14:09:53.312Z,63.98
2022-12-04T14:13:03.074Z,64.39
2022-12-04T14:16:18.241Z,65.07
2022-12-04T14:19:34.734Z,65.33
2022-12-04T14:22:37.516Z,65.31
2022-12-04T14:25:40.190Z,65.77
2022-12-04T14:28:43.873Z,65.55
2022-12-04T14:31:46.230Z,65.59
2022-12-04T14:34:49.669Z,66.05
2022-12-04T14:37:57.523Z,66.78
2022-12-04T14:41:01.829Z,67.08
2022-12-04T14:44:04.798Z,66.78
2022-12-04T14:47:25.531Z,66.71
2022-12-04T14:50:51.929Z,67.33
2022-12-04T14:54:03.536Z,67.88
2022-12-04T14:57:32.969Z,68.95
2022-12-04T15:00:35.293Z,69.19
2022-12-04T15:03:45.166Z,69.24
2022-12-04T15:06:53.078Z,69.87
2022-12-04T15:10:35.442Z,69.55
2022-12-04T15:13:39.111Z,69.48
2022-12-04T15:16:41.723Z,69.70
2022-12-04T15:19:44.770Z,70.22
2022-12-04T15:22:47.643Z,69.97
2022-12-04T15:25:55.074Z,70.21
2022-12-04T15:29:02.793Z,70.54
2022-12-04T15:32:11.014Z,70.99
2022-12-04T15:35:22.276Z,71.08
2022-12-04T15:38:24.757Z,72.17
2022-12-04T15:41:36.453Z,72.38
2022-12-04T15:44:38.798Z,72.06
2022-12-04T15:47:41.112Z,71.61
2022-12-04T15:50:43.511Z,71.72
2022-12-04T15:53:46.980Z,71.66
2022-12-04T15:57:01.628Z,72.35
2022-12-04T16:00:08.801Z,72.62
2022-12-04T16:03:31.471Z,72.56
2022-12-04T16:06:35.059Z,71.96
2022-12-04T16:09:37.403Z,73.04
2022-12-04T16:12:39.657Z,72.09
2022-12-04T16:15:43.824Z,72.64
2022-12-04T16:18:46.712Z,73.21
2022-12-04T16:21:49.300Z,73.02
2022-12-04T16:24:51.686Z,73.31
2022-12-04T16:27:53.977Z,73.17
2022-12-04T16:30:56.369Z,73.48
2022-12-04T16:33:58.779Z,73.79
2022-12-04T16:37:01.269Z,74.44
2022-12-04T16:40:06.549Z,73.79
2022-12-04T16:43:12.967Z,73.88
2022-12-04T16:46:16.428Z,73.95
2022-12-04T16:49:19.026Z,73.66
2022-12-04T16:52:21.727Z,73.32
2022-12-04T16:55:32.669Z,73.73
2022-12-04T16:58:35.178Z,73.49
2022-12-04T17:01:42.624Z,73.31
2022-12-04T17:04:44.971Z,73.77
2022-12-04T17:07:48.099Z,73.45
2022-12-04T17:10:51.041Z,72.68
2022-12-04T17:13:53.387Z,71.87
2022-12-04T17:16:56.482Z,71.93
2022-12-04T17:19:58.872Z,72.60
2022-12-04T17:23:01.309Z,72.08
2022-12-04T17:26:12.886Z,72.09
2022-12-04T17:29:15.242Z,72.38
2022-12-04T17:32:17.936Z,72.14
2022-12-04T17:35:20.459Z,72.68
2022-12-04T17:38:22.899Z,72.59
2022-12-04T17:41:25.373Z,72.68
2022-12-04T17:44:27.740Z,73.32
2022-12-04T17:47:30.104Z,74.15
2022-12-04T17:50:32.448Z,73.73
2022-12-04T17:53:35.214Z,74.53
2022-12-04T17:56:38.012Z,74.98
2022-12-04T17:59:41.286Z,74.89
2022-12-04T18:02:46.406Z,75.23
2022-12-04T18:05:52.571Z,76.34
2022-12-04T18:08:55.485Z,75.79
2022-12-04T18:11:58.679Z,75.42
2022-12-04T18:15:01.983Z,76.09
2022-12-04T18:18:04.248Z,76.45
2022-12-04T18:21:10.317Z,74.74
2022-12-04T18:24:12.771Z,75.63
2022-12-04T18:27:15.088Z,75.55
2022-12-04T18:30:17.515Z,75.18
2022-12-04T18:33:19.881Z,76.04
2022-12-04T18:36:24.908Z,75.72
2022-12-04T18:39:27.239Z,75.77
2022-12-04T18:42:31.164Z,76.23
2022-12-04T18:45:33.448Z,76.51
2022-12-04T18:48:37.185Z,76.08
2022-12-04T18:51:43.706Z,76.05
2022-12-04T18:54:49.434Z,75.66
2022-12-04T18:57:51.825Z,76.11
2022-12-04T19:00:54.130Z,75.23
2022-12-04T19:04:00.439Z,75.37
2022-12-04T19:07:02.914Z,74.56
2022-12-04T19:10:20.729Z,74.17
2022-12-04T19:13:23.245Z,74.13
2022-12-04T19:16:26.039Z,75.03
2022-12-04T19:19:31.646Z,75.48
2022-12-04T19:22:34.276Z,74.42
2022-12-04T19:25:37.108Z,74.31
2022-12-04T19:28:39.446Z,73.88
2022-12-04T19:31:42.438Z,73.58
2022-12-04T19:34:44.789Z,73.52
2022-12-04T19:37:52.470Z,75.43
2022-12-04T19:41:14.702Z,73.63
2022-12-04T19:44:47.474Z,73.16
2022-12-04T19:47:39.648Z,73.56
2022-12-04T19:50:41.936Z,74.27
2022-12-04T19:53:45.761Z,74.28
2022-12-04T19:56:51.225Z,74.72
2022-12-04T19:59:53.524Z,75.10
2022-12-04T20:02:55.920Z,75.02
2022-12-04T20:06:07.199Z,74.59
2022-12-04T20:09:13.115Z,75.34
2022-12-04T20:12:15.562Z,75.91
2022-12-04T20:15:17.822Z,75.35
2022-12-04T20:18:20.118Z,75.52
2022-12-04T20:21:26.417Z,75.72
2022-12-04T20:24:28.741Z,75.95
2022-12-04T20:27:31.083Z,76.28
2022-12-04T20:30:33.436Z,76.26
2022-12-04T20:33:35.657Z,75.25
2022-12-04T20:36:40.623Z,76.71
2022-12-04T20:39:43.111Z,76.90
2022-12-04T20:42:45.576Z,76.52
2022-12-04T20:45:48.015Z,77.53
2022-12-04T20:48:52.038Z,77.70
2022-12-04T20:51:54.373Z,77.65
2022-12-04T20:54:56.680Z,78.10
2022-12-04T20:57:59.049Z,77.04
2022-12-04T21:01:30.627Z,77.63
2022-12-04T21:04:37.274Z,77.15
2022-12-04T21:07:39.609Z,77.78
2022-12-04T21:10:41.976Z,76.01
2022-12-04T21:14:02.458Z,76.70
2022-12-04T21:17:06.854Z,76.98
2022-12-04T21:20:10.982Z,77.14
2022-12-04T21:23:13.377Z,77.24
2022-12-04T21:26:15.653Z,76.40
2022-12-04T21:29:17.971Z,76.58
2022-12-04T21:32:20.353Z,76.28
2022-12-04T21:35:22.658Z,75.97
2022-12-04T21:38:24.982Z,76.68
2022-12-04T21:41:45.970Z,76.67
2022-12-04T21:44:48.542Z,76.36
2022-12-04T21:47:50.765Z,76.47
2022-12-04T21:50:53.143Z,76.55
2022-12-04T21:53:56.032Z,76.82
2022-12-04T21:56:58.444Z,76.38
2022-12-04T22:00:00.800Z,76.68
2022-12-04T22:03:03.356Z,76.24
2022-12-04T22:06:06.104Z,76.15
2022-12-04T22:09:11.086Z,76.03
2022-12-04T22:12:48.086Z,75.82
2022-12-04T22:15:39.110Z,76.22
2022-12-04T22:18:41.851Z,75.92
2022-12-04T22:21:44.257Z,75.54
2022-12-04T22:24:47.929Z,76.36
2022-12-04T22:27:50.289Z,75.60
2022-12-04T22:30:52.864Z,76.19
2022-12-04T22:33:57.056Z,76.17
2022-12-04T22:37:00.612Z,76.06
2022-12-04T22:40:02.993Z,75.42
2022-12-04T22:43:05.281Z,75.24
2022-12-04T22:46:08.334Z,75.69
2022-12-04T22:49:10.642Z,74.72
2022-12-04T22:52:13.059Z,74.08
2022-12-04T22:55:15.281Z,73.63
2022-12-04T22:58:17.600Z,72.31
2022-12-04T23:01:28.338Z,72.33
2022-12-04T23:04:30.826Z,72.07
2022-12-04T23:07:33.121Z,71.88
2022-12-04T23:10:38.793Z,72.27
2022-12-04T23:13:42.123Z,72.75
2022-12-04T23:16:44.883Z,72.19
2022-12-04T23:19:47.207Z,73.39
2022-12-04T23:22:54.678Z,73.56
2022-12-04T23:25:56.937Z,74.79
2022-12-04T23:28:59.537Z,74.96
2022-12-04T23:32:01.845Z,76.64
2022-12-04T23:35:04.360Z,76.85
2022-12-04T23:38:06.800Z,76.98
2022-12-04T23:41:17.598Z,77.17
2022-12-04T23:44:19.825Z,76.60
2022-12-04T23:47:22.170Z,76.89
2022-12-04T23:50:24.447Z,77.61
2022-12-04T23:53:27.764Z,77.97
2022-12-04T23:56:30.080Z,76.98
2022-12-04T23:59:32.491Z,77.01
